sensor_id;sensor_type;location;lat;lon;timestamp;temperature;humidity
55648;DHT22;45266;48.756;9.246;2023-04-08T00:00:07;8.10;99.90
55648;DHT22;45266;48.756;9.246;2023-04-08T00:01:10;8.10;99.90
55648;DHT22;45266;48.756;9.246;2023-04-08T00:02:12;8.10;99.90
55648;DHT22;45266;48.756;9.246;2023-04-08T00:03:14;8.10;99.90
55648;DHT22;45266;48.756;9.246;2023-04-08T00:04:16;8.00;99.90
55648;DHT22;45266;48.756;9.246;2023-04-08T00:05:18;8.10;99.90
55648;DHT22;45266;48.756;9.246;2023-04-08T00:06:20;8.10;99.90
55648;DHT22;45266;48.756;9.246;2023-04-08T00:07:21;8.10;99.90
55648;DHT22;45266;48.756;9.246;2023-04-08T00:08:23;8.10;99.90
55648;DHT22;45266;48.756;9.246;2023-04-08T00:09:25;8.10;99.90
55648;DHT22;45266;48.756;9.246;2023-04-08T00:10:27;8.10;99.90
55648;DHT22;45266;48.756;9.246;2023-04-08T00:11:28;8.10;99.90
55648;DHT22;45266;48.756;9.246;2023-04-08T00:12:31;8.10;99.90
55648;DHT22;45266;48.756;9.246;2023-04-08T00:13:33;8.10;99.90
55648;DHT22;45266;48.756;9.246;2023-04-08T00:14:35;8.10;99.90
55648;DHT22;45266;48.756;9.246;2023-04-08T00:15:38;8.20;99.90
55648;DHT22;45266;48.756;9.246;2023-04-08T00:16:41;8.20;99.90
55648;DHT22;45266;48.756;9.246;2023-04-08T00:17:43;8.10;99.90
55648;DHT22;45266;48.756;9.246;2023-04-08T00:18:45;8.20;99.90
55648;DHT22;45266;48.756;9.246;2023-04-08T00:19:48;8.20;99.90
55648;DHT22;45266;48.756;9.246;2023-04-08T00:20:50;8.40;99.90
55648;DHT22;45266;48.756;9.246;2023-04-08T00:21:51;8.30;99.90
55648;DHT22;45266;48.756;9.246;2023-04-08T00:22:54;8.30;99.90
55648;DHT22;45266;48.756;9.246;2023-04-08T00:23:56;8.40;99.90
55648;DHT22;45266;48.756;9.246;2023-04-08T00:24:57;8.30;99.90
55648;DHT22;45266;48.756;9.246;2023-04-08T00:25:59;8.30;99.90
55648;DHT22;45266;48.756;9.246;2023-04-08T00:27:01;8.30;99.90
55648;DHT22;45266;48.756;9.246;2023-04-08T00:28:03;8.30;99.90
55648;DHT22;45266;48.756;9.246;2023-04-08T00:29:05;8.30;99.90
55648;DHT22;45266;48.756;9.246;2023-04-08T00:30:07;8.20;99.90
55648;DHT22;45266;48.756;9.246;2023-04-08T00:31:08;8.30;99.90
55648;DHT22;45266;48.756;9.246;2023-04-08T00:32:11;8.20;99.90
55648;DHT22;45266;48.756;9.246;2023-04-08T00:33:12;8.20;99.90
55648;DHT22;45266;48.756;9.246;2023-04-08T00:34:14;8.20;99.90
55648;DHT22;45266;48.756;9.246;2023-04-08T00:35:16;8.10;99.90
55648;DHT22;45266;48.756;9.246;2023-04-08T00:36:18;8.10;99.90
55648;DHT22;45266;48.756;9.246;2023-04-08T00:37:19;8.10;99.90
55648;DHT22;45266;48.756;9.246;2023-04-08T00:38:21;8.10;99.90
55648;DHT22;45266;48.756;9.246;2023-04-08T00:39:23;8.10;99.90
55648;DHT22;45266;48.756;9.246;2023-04-08T00:40:25;8.10;99.90
55648;DHT22;45266;48.756;9.246;2023-04-08T00:41:27;8.10;99.90
55648;DHT22;45266;48.756;9.246;2023-04-08T00:42:29;8.10;99.90
55648;DHT22;45266;48.756;9.246;2023-04-08T00:43:31;8.10;99.90
55648;DHT22;45266;48.756;9.246;2023-04-08T00:44:33;8.10;99.90
55648;DHT22;45266;48.756;9.246;2023-04-08T00:45:35;8.10;99.90
55648;DHT22;45266;48.756;9.246;2023-04-08T00:46:38;8.10;99.90
55648;DHT22;45266;48.756;9.246;2023-04-08T00:47:40;8.00;99.90
55648;DHT22;45266;48.756;9.246;2023-04-08T00:48:42;8.00;99.90
55648;DHT22;45266;48.756;9.246;2023-04-08T00:49:44;8.10;99.90
55648;DHT22;45266;48.756;9.246;2023-04-08T00:50:46;8.10;99.90
55648;DHT22;45266;48.756;9.246;2023-04-08T00:51:48;8.10;99.90
55648;DHT22;45266;48.756;9.246;2023-04-08T00:52:50;8.20;99.90
55648;DHT22;45266;48.756;9.246;2023-04-08T00:53:51;8.00;99.90
55648;DHT22;45266;48.756;9.246;2023-04-08T00:54:54;8.20;99.90
55648;DHT22;45266;48.756;9.246;2023-04-08T00:55:56;8.20;99.90
55648;DHT22;45266;48.756;9.246;2023-04-08T00:56:58;8.20;99.90
55648;DHT22;45266;48.756;9.246;2023-04-08T00:58:01;8.20;99.90
55648;DHT22;45266;48.756;9.246;2023-04-08T00:59:04;8.20;99.90
55648;DHT22;45266;48.756;9.246;2023-04-08T01:00:07;8.10;99.90
55648;DHT22;45266;48.756;9.246;2023-04-08T01:01:16;8.20;99.90
55648;DHT22;45266;48.756;9.246;2023-04-08T01:03:11;8.20;99.90
55648;DHT22;45266;48.756;9.246;2023-04-08T01:04:06;8.20;99.90
55648;DHT22;45266;48.756;9.246;2023-04-08T01:05:19;8.20;99.90
55648;DHT22;45266;48.756;9.246;2023-04-08T01:07:02;8.20;99.90
55648;DHT22;45266;48.756;9.246;2023-04-08T01:08:07;8.20;99.90
55648;DHT22;45266;48.756;9.246;2023-04-08T01:09:11;8.20;99.90
55648;DHT22;45266;48.756;9.246;2023-04-08T01:10:29;8.20;99.90
55648;DHT22;45266;48.756;9.246;2023-04-08T01:11:33;8.20;99.90
55648;DHT22;45266;48.756;9.246;2023-04-08T01:12:40;8.10;99.90
55648;DHT22;45266;48.756;9.246;2023-04-08T01:13:45;8.10;99.90
55648;DHT22;45266;48.756;9.246;2023-04-08T01:14:53;8.10;99.90
55648;DHT22;45266;48.756;9.246;2023-04-08T01:15:57;8.10;99.90
55648;DHT22;45266;48.756;9.246;2023-04-08T01:17:01;8.10;99.90
55648;DHT22;45266;48.756;9.246;2023-04-08T01:18:06;8.10;99.90
55648;DHT22;45266;48.756;9.246;2023-04-08T01:19:09;8.10;99.90
55648;DHT22;45266;48.756;9.246;2023-04-08T01:20:18;8.10;99.90
55648;DHT22;45266;48.756;9.246;2023-04-08T01:21:21;8.00;99.90
55648;DHT22;45266;48.756;9.246;2023-04-08T01:24:08;8.10;99.90
55648;DHT22;45266;48.756;9.246;2023-04-08T01:25:26;8.10;99.90
55648;DHT22;45266;48.756;9.246;2023-04-08T01:26:30;8.10;99.90
55648;DHT22;45266;48.756;9.246;2023-04-08T01:27:33;8.00;99.90
55648;DHT22;45266;48.756;9.246;2023-04-08T01:28:36;8.10;99.90
55648;DHT22;45266;48.756;9.246;2023-04-08T01:29:41;8.10;99.90
55648;DHT22;45266;48.756;9.246;2023-04-08T01:30:45;8.10;99.90
55648;DHT22;45266;48.756;9.246;2023-04-08T01:31:49;8.10;99.90
55648;DHT22;45266;48.756;9.246;2023-04-08T01:32:53;8.10;99.90
55648;DHT22;45266;48.756;9.246;2023-04-08T01:33:56;8.00;99.90
55648;DHT22;45266;48.756;9.246;2023-04-08T01:35:00;8.00;99.90
55648;DHT22;45266;48.756;9.246;2023-04-08T01:36:03;8.00;99.90
55648;DHT22;45266;48.756;9.246;2023-04-08T01:37:07;8.00;99.90
55648;DHT22;45266;48.756;9.246;2023-04-08T01:38:13;8.00;99.90
55648;DHT22;45266;48.756;9.246;2023-04-08T01:39:15;8.10;99.90
55648;DHT22;45266;48.756;9.246;2023-04-08T01:40:19;8.00;99.90
55648;DHT22;45266;48.756;9.246;2023-04-08T01:41:21;8.00;99.90
55648;DHT22;45266;48.756;9.246;2023-04-08T01:42:24;8.00;99.90
55648;DHT22;45266;48.756;9.246;2023-04-08T01:43:27;8.00;99.90
55648;DHT22;45266;48.756;9.246;2023-04-08T01:44:30;8.00;99.90
55648;DHT22;45266;48.756;9.246;2023-04-08T01:45:34;8.00;99.90
55648;DHT22;45266;48.756;9.246;2023-04-08T01:46:36;8.00;99.90
55648;DHT22;45266;48.756;9.246;2023-04-08T01:47:40;8.00;99.90
55648;DHT22;45266;48.756;9.246;2023-04-08T01:48:43;8.00;99.90
55648;DHT22;45266;48.756;9.246;2023-04-08T01:49:45;8.00;99.90
55648;DHT22;45266;48.756;9.246;2023-04-08T01:50:48;8.00;99.90
55648;DHT22;45266;48.756;9.246;2023-04-08T01:51:52;7.90;99.90
55648;DHT22;45266;48.756;9.246;2023-04-08T01:52:58;7.90;99.90
55648;DHT22;45266;48.756;9.246;2023-04-08T01:54:00;7.90;99.90
55648;DHT22;45266;48.756;9.246;2023-04-08T01:55:03;8.00;99.90
55648;DHT22;45266;48.756;9.246;2023-04-08T01:56:08;8.00;99.90
55648;DHT22;45266;48.756;9.246;2023-04-08T01:57:16;8.00;99.90
55648;DHT22;45266;48.756;9.246;2023-04-08T01:58:21;7.90;99.90
55648;DHT22;45266;48.756;9.246;2023-04-08T01:59:29;7.90;99.90
55648;DHT22;45266;48.756;9.246;2023-04-08T02:00:33;7.90;99.90
55648;DHT22;45266;48.756;9.246;2023-04-08T02:01:36;7.90;99.90
55648;DHT22;45266;48.756;9.246;2023-04-08T02:02:41;8.00;99.90
55648;DHT22;45266;48.756;9.246;2023-04-08T02:03:44;7.90;99.90
55648;DHT22;45266;48.756;9.246;2023-04-08T02:04:47;7.90;99.90
55648;DHT22;45266;48.756;9.246;2023-04-08T02:05:49;7.90;99.90
55648;DHT22;45266;48.756;9.246;2023-04-08T02:06:51;8.00;99.90
55648;DHT22;45266;48.756;9.246;2023-04-08T02:07:53;7.90;99.90
55648;DHT22;45266;48.756;9.246;2023-04-08T02:08:55;7.90;99.90
55648;DHT22;45266;48.756;9.246;2023-04-08T02:09:56;7.90;99.90
55648;DHT22;45266;48.756;9.246;2023-04-08T02:10:59;8.00;99.90
55648;DHT22;45266;48.756;9.246;2023-04-08T02:12:01;7.90;99.90
55648;DHT22;45266;48.756;9.246;2023-04-08T02:13:02;8.00;99.90
55648;DHT22;45266;48.756;9.246;2023-04-08T02:14:04;7.90;99.90
55648;DHT22;45266;48.756;9.246;2023-04-08T02:15:07;7.90;99.90
55648;DHT22;45266;48.756;9.246;2023-04-08T02:16:17;7.90;99.90
55648;DHT22;45266;48.756;9.246;2023-04-08T02:18:25;8.00;99.90
55648;DHT22;45266;48.756;9.246;2023-04-08T02:19:45;8.00;99.90
55648;DHT22;45266;48.756;9.246;2023-04-08T02:20:58;7.90;99.90
55648;DHT22;45266;48.756;9.246;2023-04-08T02:22:11;7.90;99.90
55648;DHT22;45266;48.756;9.246;2023-04-08T02:23:18;8.00;99.90
55648;DHT22;45266;48.756;9.246;2023-04-08T02:24:21;8.00;99.90
55648;DHT22;45266;48.756;9.246;2023-04-08T02:25:24;8.00;99.90
55648;DHT22;45266;48.756;9.246;2023-04-08T02:26:26;7.90;99.90
55648;DHT22;45266;48.756;9.246;2023-04-08T02:27:28;7.90;99.90
55648;DHT22;45266;48.756;9.246;2023-04-08T02:28:34;7.90;99.90
55648;DHT22;45266;48.756;9.246;2023-04-08T02:29:39;7.90;99.90
55648;DHT22;45266;48.756;9.246;2023-04-08T02:30:45;7.90;99.90
55648;DHT22;45266;48.756;9.246;2023-04-08T02:31:49;7.90;99.90
55648;DHT22;45266;48.756;9.246;2023-04-08T02:32:53;7.90;99.90
55648;DHT22;45266;48.756;9.246;2023-04-08T02:33:56;7.90;99.90
55648;DHT22;45266;48.756;9.246;2023-04-08T02:35:00;7.90;99.90
55648;DHT22;45266;48.756;9.246;2023-04-08T02:36:03;8.00;99.90
55648;DHT22;45266;48.756;9.246;2023-04-08T02:37:07;7.90;99.90
55648;DHT22;45266;48.756;9.246;2023-04-08T02:38:09;7.90;99.90
55648;DHT22;45266;48.756;9.246;2023-04-08T02:39:11;7.90;99.90
55648;DHT22;45266;48.756;9.246;2023-04-08T02:40:23;7.90;99.90
55648;DHT22;45266;48.756;9.246;2023-04-08T02:41:30;7.90;99.90
55648;DHT22;45266;48.756;9.246;2023-04-08T02:42:32;7.90;99.90
55648;DHT22;45266;48.756;9.246;2023-04-08T02:43:33;7.90;99.90
55648;DHT22;45266;48.756;9.246;2023-04-08T02:44:35;7.90;99.90
55648;DHT22;45266;48.756;9.246;2023-04-08T02:45:40;8.00;99.90
55648;DHT22;45266;48.756;9.246;2023-04-08T02:46:42;7.90;99.90
55648;DHT22;45266;48.756;9.246;2023-04-08T02:47:44;7.90;99.90
55648;DHT22;45266;48.756;9.246;2023-04-08T02:48:46;7.90;99.90
55648;DHT22;45266;48.756;9.246;2023-04-08T02:49:48;7.90;99.90
55648;DHT22;45266;48.756;9.246;2023-04-08T02:50:53;7.90;99.90
55648;DHT22;45266;48.756;9.246;2023-04-08T02:51:55;7.90;99.90
55648;DHT22;45266;48.756;9.246;2023-04-08T02:52:57;7.90;99.90
55648;DHT22;45266;48.756;9.246;2023-04-08T02:53:59;7.90;99.90
55648;DHT22;45266;48.756;9.246;2023-04-08T02:55:00;7.90;99.90
55648;DHT22;45266;48.756;9.246;2023-04-08T02:56:02;7.90;99.90
55648;DHT22;45266;48.756;9.246;2023-04-08T02:57:04;7.90;99.90
55648;DHT22;45266;48.756;9.246;2023-04-08T02:58:06;7.80;99.90
55648;DHT22;45266;48.756;9.246;2023-04-08T02:59:08;7.90;99.90
55648;DHT22;45266;48.756;9.246;2023-04-08T03:00:10;7.90;99.90
55648;DHT22;45266;48.756;9.246;2023-04-08T03:01:12;7.90;99.90
55648;DHT22;45266;48.756;9.246;2023-04-08T03:02:13;7.90;99.90
55648;DHT22;45266;48.756;9.246;2023-04-08T03:03:15;7.90;99.90
55648;DHT22;45266;48.756;9.246;2023-04-08T03:04:17;7.90;99.90
55648;DHT22;45266;48.756;9.246;2023-04-08T03:05:19;7.80;99.90
55648;DHT22;45266;48.756;9.246;2023-04-08T03:06:22;7.90;99.90
55648;DHT22;45266;48.756;9.246;2023-04-08T03:07:24;7.90;99.90
55648;DHT22;45266;48.756;9.246;2023-04-08T03:08:26;7.80;99.90
55648;DHT22;45266;48.756;9.246;2023-04-08T03:09:28;7.80;99.90
55648;DHT22;45266;48.756;9.246;2023-04-08T03:10:29;7.80;99.90
55648;DHT22;45266;48.756;9.246;2023-04-08T03:11:31;7.80;99.90
55648;DHT22;45266;48.756;9.246;2023-04-08T03:12:33;7.80;99.90
55648;DHT22;45266;48.756;9.246;2023-04-08T03:13:36;7.80;99.90
55648;DHT22;45266;48.756;9.246;2023-04-08T03:14:37;7.80;99.90
55648;DHT22;45266;48.756;9.246;2023-04-08T03:15:39;7.70;99.90
55648;DHT22;45266;48.756;9.246;2023-04-08T03:16:41;7.80;99.90
55648;DHT22;45266;48.756;9.246;2023-04-08T03:17:43;7.70;99.90
55648;DHT22;45266;48.756;9.246;2023-04-08T03:18:44;7.70;99.90
55648;DHT22;45266;48.756;9.246;2023-04-08T03:19:52;7.70;99.90
55648;DHT22;45266;48.756;9.246;2023-04-08T03:20:54;7.70;99.90
55648;DHT22;45266;48.756;9.246;2023-04-08T03:21:56;7.70;99.90
55648;DHT22;45266;48.756;9.246;2023-04-08T03:22:58;7.70;99.90
55648;DHT22;45266;48.756;9.246;2023-04-08T03:23:59;7.70;99.90
55648;DHT22;45266;48.756;9.246;2023-04-08T03:25:01;7.70;99.90
55648;DHT22;45266;48.756;9.246;2023-04-08T03:26:03;7.70;99.90
55648;DHT22;45266;48.756;9.246;2023-04-08T03:27:05;7.70;99.90
55648;DHT22;45266;48.756;9.246;2023-04-08T03:28:08;7.70;99.90
55648;DHT22;45266;48.756;9.246;2023-04-08T03:29:11;7.70;99.90
55648;DHT22;45266;48.756;9.246;2023-04-08T03:30:13;7.70;99.90
55648;DHT22;45266;48.756;9.246;2023-04-08T03:31:15;7.70;99.90
55648;DHT22;45266;48.756;9.246;2023-04-08T03:32:17;7.70;99.90
55648;DHT22;45266;48.756;9.246;2023-04-08T03:33:19;7.60;99.90
55648;DHT22;45266;48.756;9.246;2023-04-08T03:34:21;7.60;99.90
55648;DHT22;45266;48.756;9.246;2023-04-08T03:35:23;7.60;99.90
55648;DHT22;45266;48.756;9.246;2023-04-08T03:36:24;7.70;99.90
55648;DHT22;45266;48.756;9.246;2023-04-08T03:37:27;7.60;99.90
55648;DHT22;45266;48.756;9.246;2023-04-08T03:38:29;7.60;99.90
55648;DHT22;45266;48.756;9.246;2023-04-08T03:39:30;7.60;99.90
55648;DHT22;45266;48.756;9.246;2023-04-08T03:40:32;7.60;99.90
55648;DHT22;45266;48.756;9.246;2023-04-08T03:41:34;7.60;99.90
55648;DHT22;45266;48.756;9.246;2023-04-08T03:42:36;7.50;99.90
55648;DHT22;45266;48.756;9.246;2023-04-08T03:43:38;7.50;99.90
55648;DHT22;45266;48.756;9.246;2023-04-08T03:44:39;7.50;99.90
55648;DHT22;45266;48.756;9.246;2023-04-08T03:45:41;7.60;99.90
55648;DHT22;45266;48.756;9.246;2023-04-08T03:46:43;7.50;99.90
55648;DHT22;45266;48.756;9.246;2023-04-08T03:47:45;7.50;99.90
55648;DHT22;45266;48.756;9.246;2023-04-08T03:48:46;7.50;99.90
55648;DHT22;45266;48.756;9.246;2023-04-08T03:49:51;7.50;99.90
55648;DHT22;45266;48.756;9.246;2023-04-08T03:50:53;7.50;99.90
55648;DHT22;45266;48.756;9.246;2023-04-08T03:51:55;7.50;99.90
55648;DHT22;45266;48.756;9.246;2023-04-08T03:52:57;7.40;99.90
55648;DHT22;45266;48.756;9.246;2023-04-08T03:53:58;7.40;99.90
55648;DHT22;45266;48.756;9.246;2023-04-08T03:55:00;7.40;99.90
55648;DHT22;45266;48.756;9.246;2023-04-08T03:56:02;7.40;99.90
55648;DHT22;45266;48.756;9.246;2023-04-08T03:57:05;7.40;99.90
55648;DHT22;45266;48.756;9.246;2023-04-08T03:58:06;7.40;99.90
55648;DHT22;45266;48.756;9.246;2023-04-08T03:59:08;7.40;99.90
55648;DHT22;45266;48.756;9.246;2023-04-08T04:00:10;7.40;99.90
55648;DHT22;45266;48.756;9.246;2023-04-08T04:01:12;7.40;99.90
55648;DHT22;45266;48.756;9.246;2023-04-08T04:02:14;7.40;99.90
55648;DHT22;45266;48.756;9.246;2023-04-08T04:03:16;7.40;99.90
55648;DHT22;45266;48.756;9.246;2023-04-08T04:04:18;7.40;99.90
55648;DHT22;45266;48.756;9.246;2023-04-08T04:05:20;7.40;99.90
55648;DHT22;45266;48.756;9.246;2023-04-08T04:06:22;7.40;99.90
55648;DHT22;45266;48.756;9.246;2023-04-08T04:07:24;7.40;99.90
55648;DHT22;45266;48.756;9.246;2023-04-08T04:08:26;7.40;99.90
55648;DHT22;45266;48.756;9.246;2023-04-08T04:09:27;7.40;99.90
55648;DHT22;45266;48.756;9.246;2023-04-08T04:10:29;7.40;99.90
55648;DHT22;45266;48.756;9.246;2023-04-08T04:11:33;7.40;99.90
55648;DHT22;45266;48.756;9.246;2023-04-08T04:12:35;7.40;99.90
55648;DHT22;45266;48.756;9.246;2023-04-08T04:13:36;7.40;99.90
55648;DHT22;45266;48.756;9.246;2023-04-08T04:14:38;7.30;99.90
55648;DHT22;45266;48.756;9.246;2023-04-08T04:15:40;7.30;99.90
55648;DHT22;45266;48.756;9.246;2023-04-08T04:16:42;7.30;99.90
55648;DHT22;45266;48.756;9.246;2023-04-08T04:17:46;7.30;99.90
55648;DHT22;45266;48.756;9.246;2023-04-08T04:18:48;7.30;99.90
55648;DHT22;45266;48.756;9.246;2023-04-08T04:19:50;7.30;99.90
55648;DHT22;45266;48.756;9.246;2023-04-08T04:20:53;7.30;99.90
55648;DHT22;45266;48.756;9.246;2023-04-08T04:21:55;7.30;99.90
55648;DHT22;45266;48.756;9.246;2023-04-08T04:22:56;7.30;99.90
55648;DHT22;45266;48.756;9.246;2023-04-08T04:23:58;7.30;99.90
55648;DHT22;45266;48.756;9.246;2023-04-08T04:25:00;7.30;99.90
55648;DHT22;45266;48.756;9.246;2023-04-08T04:26:07;7.30;99.90
55648;DHT22;45266;48.756;9.246;2023-04-08T04:27:09;7.20;99.90
55648;DHT22;45266;48.756;9.246;2023-04-08T04:28:11;7.20;99.90
55648;DHT22;45266;48.756;9.246;2023-04-08T04:29:13;7.20;99.90
55648;DHT22;45266;48.756;9.246;2023-04-08T04:30:16;7.20;99.90
55648;DHT22;45266;48.756;9.246;2023-04-08T04:31:22;7.20;99.90
55648;DHT22;45266;48.756;9.246;2023-04-08T04:32:27;7.20;99.90
55648;DHT22;45266;48.756;9.246;2023-04-08T04:33:30;7.20;99.90
55648;DHT22;45266;48.756;9.246;2023-04-08T04:34:31;7.20;99.90
55648;DHT22;45266;48.756;9.246;2023-04-08T04:35:33;7.10;99.90
55648;DHT22;45266;48.756;9.246;2023-04-08T04:36:35;7.10;99.90
55648;DHT22;45266;48.756;9.246;2023-04-08T04:37:37;7.10;99.90
55648;DHT22;45266;48.756;9.246;2023-04-08T04:38:39;7.10;99.90
55648;DHT22;45266;48.756;9.246;2023-04-08T04:39:41;7.10;99.90
55648;DHT22;45266;48.756;9.246;2023-04-08T04:40:43;7.10;99.90
55648;DHT22;45266;48.756;9.246;2023-04-08T04:41:45;7.10;99.90
55648;DHT22;45266;48.756;9.246;2023-04-08T04:42:48;7.10;99.90
55648;DHT22;45266;48.756;9.246;2023-04-08T04:43:50;7.10;99.90
55648;DHT22;45266;48.756;9.246;2023-04-08T04:44:52;7.10;99.90
55648;DHT22;45266;48.756;9.246;2023-04-08T04:45:54;7.20;99.90
55648;DHT22;45266;48.756;9.246;2023-04-08T04:46:57;7.10;99.90
55648;DHT22;45266;48.756;9.246;2023-04-08T04:47:59;7.10;99.90
55648;DHT22;45266;48.756;9.246;2023-04-08T04:49:01;7.10;99.90
55648;DHT22;45266;48.756;9.246;2023-04-08T04:50:03;7.10;99.90
55648;DHT22;45266;48.756;9.246;2023-04-08T04:51:05;7.10;99.90
55648;DHT22;45266;48.756;9.246;2023-04-08T04:52:08;7.10;99.90
55648;DHT22;45266;48.756;9.246;2023-04-08T04:53:09;7.10;99.90
55648;DHT22;45266;48.756;9.246;2023-04-08T04:54:11;7.10;99.90
55648;DHT22;45266;48.756;9.246;2023-04-08T04:55:13;7.10;99.90
55648;DHT22;45266;48.756;9.246;2023-04-08T04:56:16;7.20;99.90
55648;DHT22;45266;48.756;9.246;2023-04-08T04:57:18;7.20;99.90
55648;DHT22;45266;48.756;9.246;2023-04-08T04:58:19;7.20;99.90
55648;DHT22;45266;48.756;9.246;2023-04-08T04:59:21;7.10;99.90
55648;DHT22;45266;48.756;9.246;2023-04-08T05:00:23;7.20;99.90
55648;DHT22;45266;48.756;9.246;2023-04-08T05:01:25;7.10;99.90
55648;DHT22;45266;48.756;9.246;2023-04-08T05:02:27;7.10;99.90
55648;DHT22;45266;48.756;9.246;2023-04-08T05:03:28;7.10;99.90
55648;DHT22;45266;48.756;9.246;2023-04-08T05:04:30;7.00;99.90
55648;DHT22;45266;48.756;9.246;2023-04-08T05:05:32;7.00;99.90
55648;DHT22;45266;48.756;9.246;2023-04-08T05:06:34;7.00;99.90
55648;DHT22;45266;48.756;9.246;2023-04-08T05:07:37;7.00;99.90
55648;DHT22;45266;48.756;9.246;2023-04-08T05:08:38;6.90;99.90
55648;DHT22;45266;48.756;9.246;2023-04-08T05:09:40;6.90;99.90
55648;DHT22;45266;48.756;9.246;2023-04-08T05:10:42;6.90;99.90
55648;DHT22;45266;48.756;9.246;2023-04-08T05:11:44;6.90;99.90
55648;DHT22;45266;48.756;9.246;2023-04-08T05:12:45;6.80;99.90
55648;DHT22;45266;48.756;9.246;2023-04-08T05:13:47;7.00;99.90
55648;DHT22;45266;48.756;9.246;2023-04-08T05:14:49;6.90;99.90
55648;DHT22;45266;48.756;9.246;2023-04-08T05:15:51;6.90;99.90
55648;DHT22;45266;48.756;9.246;2023-04-08T05:16:52;6.90;99.90
55648;DHT22;45266;48.756;9.246;2023-04-08T05:17:54;6.90;99.90
55648;DHT22;45266;48.756;9.246;2023-04-08T05:18:56;6.90;99.90
55648;DHT22;45266;48.756;9.246;2023-04-08T05:19:58;6.90;99.90
55648;DHT22;45266;48.756;9.246;2023-04-08T05:21:00;6.90;99.90
55648;DHT22;45266;48.756;9.246;2023-04-08T05:22:01;6.90;99.90
55648;DHT22;45266;48.756;9.246;2023-04-08T05:23:03;6.90;99.90
55648;DHT22;45266;48.756;9.246;2023-04-08T05:24:05;6.90;99.90
55648;DHT22;45266;48.756;9.246;2023-04-08T05:25:07;6.90;99.90
55648;DHT22;45266;48.756;9.246;2023-04-08T05:26:09;6.90;99.90
55648;DHT22;45266;48.756;9.246;2023-04-08T05:27:11;6.90;99.90
55648;DHT22;45266;48.756;9.246;2023-04-08T05:28:12;6.90;99.90
55648;DHT22;45266;48.756;9.246;2023-04-08T05:29:14;6.90;99.90
55648;DHT22;45266;48.756;9.246;2023-04-08T05:30:16;7.00;99.90
55648;DHT22;45266;48.756;9.246;2023-04-08T05:31:19;6.90;99.90
55648;DHT22;45266;48.756;9.246;2023-04-08T05:32:21;6.90;99.90
55648;DHT22;45266;48.756;9.246;2023-04-08T05:33:23;6.90;99.90
55648;DHT22;45266;48.756;9.246;2023-04-08T05:34:26;6.90;99.90
55648;DHT22;45266;48.756;9.246;2023-04-08T05:35:28;6.90;99.90
55648;DHT22;45266;48.756;9.246;2023-04-08T05:36:30;7.00;99.90
55648;DHT22;45266;48.756;9.246;2023-04-08T05:37:32;7.00;99.90
55648;DHT22;45266;48.756;9.246;2023-04-08T05:38:34;7.00;99.90
55648;DHT22;45266;48.756;9.246;2023-04-08T05:39:36;7.00;99.90
55648;DHT22;45266;48.756;9.246;2023-04-08T05:40:38;7.00;99.90
55648;DHT22;45266;48.756;9.246;2023-04-08T05:41:40;7.00;99.90
55648;DHT22;45266;48.756;9.246;2023-04-08T05:42:41;7.00;99.90
55648;DHT22;45266;48.756;9.246;2023-04-08T05:43:43;7.00;99.90
55648;DHT22;45266;48.756;9.246;2023-04-08T05:44:45;7.00;99.90
55648;DHT22;45266;48.756;9.246;2023-04-08T05:45:50;6.90;99.90
55648;DHT22;45266;48.756;9.246;2023-04-08T05:46:51;6.90;99.90
55648;DHT22;45266;48.756;9.246;2023-04-08T05:47:53;7.00;99.90
55648;DHT22;45266;48.756;9.246;2023-04-08T05:48:55;7.00;99.90
55648;DHT22;45266;48.756;9.246;2023-04-08T05:49:57;7.00;99.90
55648;DHT22;45266;48.756;9.246;2023-04-08T05:50:59;7.00;99.90
55648;DHT22;45266;48.756;9.246;2023-04-08T05:52:01;7.00;99.90
55648;DHT22;45266;48.756;9.246;2023-04-08T05:53:04;7.10;99.90
55648;DHT22;45266;48.756;9.246;2023-04-08T05:54:05;7.10;99.90
55648;DHT22;45266;48.756;9.246;2023-04-08T05:55:07;7.10;99.90
55648;DHT22;45266;48.756;9.246;2023-04-08T05:56:09;7.20;99.90
55648;DHT22;45266;48.756;9.246;2023-04-08T05:57:11;7.20;99.90
55648;DHT22;45266;48.756;9.246;2023-04-08T05:58:13;7.30;99.90
55648;DHT22;45266;48.756;9.246;2023-04-08T05:59:15;7.30;99.90
55648;DHT22;45266;48.756;9.246;2023-04-08T06:00:16;7.30;99.90
55648;DHT22;45266;48.756;9.246;2023-04-08T06:01:19;7.40;99.90
55648;DHT22;45266;48.756;9.246;2023-04-08T06:02:21;7.40;99.90
55648;DHT22;45266;48.756;9.246;2023-04-08T06:03:22;7.40;99.90
55648;DHT22;45266;48.756;9.246;2023-04-08T06:04:25;7.50;99.90
55648;DHT22;45266;48.756;9.246;2023-04-08T06:05:27;7.50;99.90
55648;DHT22;45266;48.756;9.246;2023-04-08T06:06:28;7.50;99.90
55648;DHT22;45266;48.756;9.246;2023-04-08T06:07:31;7.40;99.90
55648;DHT22;45266;48.756;9.246;2023-04-08T06:08:33;7.40;99.90
55648;DHT22;45266;48.756;9.246;2023-04-08T06:09:35;7.50;99.90
55648;DHT22;45266;48.756;9.246;2023-04-08T06:10:37;7.50;99.90
55648;DHT22;45266;48.756;9.246;2023-04-08T06:11:39;7.50;99.90
55648;DHT22;45266;48.756;9.246;2023-04-08T06:12:41;7.50;99.90
55648;DHT22;45266;48.756;9.246;2023-04-08T06:13:43;7.50;99.90
55648;DHT22;45266;48.756;9.246;2023-04-08T06:14:44;7.50;99.90
55648;DHT22;45266;48.756;9.246;2023-04-08T06:15:46;7.50;99.90
55648;DHT22;45266;48.756;9.246;2023-04-08T06:16:50;7.50;99.90
55648;DHT22;45266;48.756;9.246;2023-04-08T06:17:53;7.50;99.90
55648;DHT22;45266;48.756;9.246;2023-04-08T06:18:55;7.50;99.90
55648;DHT22;45266;48.756;9.246;2023-04-08T06:19:57;7.60;99.90
55648;DHT22;45266;48.756;9.246;2023-04-08T06:20:59;7.50;99.90
55648;DHT22;45266;48.756;9.246;2023-04-08T06:22:01;7.60;99.90
55648;DHT22;45266;48.756;9.246;2023-04-08T06:23:02;7.60;99.90
55648;DHT22;45266;48.756;9.246;2023-04-08T06:24:04;7.60;99.90
55648;DHT22;45266;48.756;9.246;2023-04-08T06:25:07;7.60;99.90
55648;DHT22;45266;48.756;9.246;2023-04-08T06:26:09;7.60;99.90
55648;DHT22;45266;48.756;9.246;2023-04-08T06:27:10;7.60;99.90
55648;DHT22;45266;48.756;9.246;2023-04-08T06:28:13;7.60;99.90
55648;DHT22;45266;48.756;9.246;2023-04-08T06:29:15;7.60;99.90
55648;DHT22;45266;48.756;9.246;2023-04-08T06:30:17;7.70;99.90
55648;DHT22;45266;48.756;9.246;2023-04-08T06:31:19;7.70;99.90
55648;DHT22;45266;48.756;9.246;2023-04-08T06:32:21;7.60;99.90
55648;DHT22;45266;48.756;9.246;2023-04-08T06:33:23;7.70;99.90
55648;DHT22;45266;48.756;9.246;2023-04-08T06:34:25;7.70;99.90
55648;DHT22;45266;48.756;9.246;2023-04-08T06:35:26;7.70;99.90
55648;DHT22;45266;48.756;9.246;2023-04-08T06:36:29;7.70;99.90
55648;DHT22;45266;48.756;9.246;2023-04-08T06:37:30;7.70;99.90
55648;DHT22;45266;48.756;9.246;2023-04-08T06:38:33;7.70;99.90
55648;DHT22;45266;48.756;9.246;2023-04-08T06:39:34;7.80;99.90
55648;DHT22;45266;48.756;9.246;2023-04-08T06:40:38;7.80;99.90
55648;DHT22;45266;48.756;9.246;2023-04-08T06:41:40;7.80;99.90
55648;DHT22;45266;48.756;9.246;2023-04-08T06:42:42;7.80;99.90
55648;DHT22;45266;48.756;9.246;2023-04-08T06:43:45;7.80;99.90
55648;DHT22;45266;48.756;9.246;2023-04-08T06:44:46;7.80;99.90
55648;DHT22;45266;48.756;9.246;2023-04-08T06:45:48;7.80;99.90